createdAt,value
2023-02-15T00:02:02.647Z,18.40
2023-02-15T00:04:47.333Z,19.30
2023-02-15T00:07:18.948Z,18.10
2023-02-15T00:09:48.121Z,19.92
2023-02-15T00:12:18.111Z,18.88
2023-02-15T00:14:46.089Z,18.20
2023-02-15T00:17:14.116Z,19.27
2023-02-15T00:19:42.184Z,18.85
2023-02-15T00:22:10.468Z,18.83
2023-02-15T00:24:39.748Z,18.85
2023-02-15T00:27:07.871Z,19.08
2023-02-15T00:29:35.860Z,18.98
2023-02-15T00:32:03.855Z,19.33
2023-02-15T00:34:31.910Z,19.83
2023-02-15T00:37:00.165Z,19.23
2023-02-15T00:39:28.327Z,19.67
2023-02-15T00:41:57.723Z,20.27
2023-02-15T00:44:25.638Z,20.17
2023-02-15T00:46:53.610Z,19.38
2023-02-15T00:49:22.412Z,19.77
2023-02-15T00:51:50.399Z,20.75
2023-02-15T00:54:18.465Z,22.67
2023-02-15T00:56:46.427Z,18.83
2023-02-15T00:59:15.955Z,19.02
2023-02-15T01:01:43.972Z,21.58
2023-02-15T01:04:11.919Z,20.48
2023-02-15T01:06:39.916Z,21.05
2023-02-15T01:09:07.915Z,19.50
2023-02-15T01:11:37.808Z,19.65
2023-02-15T01:14:06.397Z,20.38
2023-02-15T01:16:35.773Z,21.42
2023-02-15T01:19:04.648Z,22.52
2023-02-15T01:21:35.276Z,21.83
2023-02-15T01:24:04.448Z,21.55
2023-02-15T01:26:32.714Z,20.30
2023-02-15T01:29:00.718Z,20.35
2023-02-15T01:31:28.692Z,21.67
2023-02-15T01:33:58.096Z,21.73
2023-02-15T01:36:26.123Z,21.05
2023-02-15T01:38:54.195Z,20.27
2023-02-15T01:41:24.036Z,22.08
2023-02-15T01:43:54.346Z,21.75
2023-02-15T01:46:26.623Z,20.17
2023-02-15T01:49:02.120Z,21.83
2023-02-15T01:51:32.951Z,22.05
2023-02-15T01:54:04.675Z,22.15
2023-02-15T01:56:36.745Z,22.60
2023-02-15T01:59:10.245Z,20.90
2023-02-15T02:01:39.580Z,21.73
2023-02-15T02:04:14.644Z,22.15
2023-02-15T02:06:43.151Z,20.77
2023-02-15T02:09:11.509Z,21.80
2023-02-15T02:11:41.360Z,21.55
2023-02-15T02:14:09.965Z,21.25
2023-02-15T02:16:47.303Z,22.88
2023-02-15T02:19:57.758Z,22.65
2023-02-15T02:23:02.372Z,22.73
2023-02-15T02:26:02.624Z,24.23
2023-02-15T02:28:51.591Z,20.63
2023-02-15T02:31:56.707Z,22.50
2023-02-15T02:34:30.943Z,23.25
2023-02-15T02:37:06.670Z,23.25
2023-02-15T02:39:42.056Z,21.08
2023-02-15T02:42:16.577Z,21.75
2023-02-15T02:44:46.190Z,22.08
2023-02-15T02:47:20.120Z,22.60
2023-02-15T02:49:49.492Z,20.77
2023-02-15T02:52:38.302Z,22.80
2023-02-15T02:55:09.763Z,20.52
2023-02-15T02:57:42.556Z,20.17
2023-02-15T03:00:12.037Z,19.20
2023-02-15T03:02:43.339Z,21.20
2023-02-15T03:05:19.369Z,21.83
2023-02-15T03:07:50.647Z,21.45
2023-02-15T03:10:22.779Z,21.15
2023-02-15T03:12:53.846Z,23.05
2023-02-15T03:15:24.205Z,21.80
2023-02-15T03:17:58.510Z,23.38
2023-02-15T03:20:32.469Z,22.20
2023-02-15T03:23:06.164Z,23.13
2023-02-15T03:25:38.215Z,23.98
2023-02-15T03:28:10.831Z,23.10
2023-02-15T03:30:42.000Z,22.13
2023-02-15T03:33:11.670Z,23.50
2023-02-15T03:35:47.210Z,22.83
2023-02-15T03:41:06.556Z,21.05
2023-02-15T03:43:44.663Z,24.10
2023-02-15T03:46:18.440Z,24.02
2023-02-15T03:48:51.485Z,21.98
2023-02-15T03:51:36.145Z,22.40
2023-02-15T03:54:07.487Z,22.88
2023-02-15T03:56:37.419Z,23.02
2023-02-15T03:59:23.847Z,24.95
2023-02-15T04:02:06.884Z,22.05
2023-02-15T04:04:37.746Z,25.38
2023-02-15T04:07:09.746Z,23.77
2023-02-15T04:09:55.637Z,22.63
2023-02-15T04:12:23.838Z,21.38
2023-02-15T04:15:09.217Z,23.75
2023-02-15T04:17:38.150Z,23.15
2023-02-15T04:20:24.852Z,24.50
2023-02-15T04:23:12.275Z,23.33
2023-02-15T04:25:40.284Z,24.52
2023-02-15T04:28:09.034Z,24.42
2023-02-15T04:30:37.059Z,22.65
2023-02-15T04:33:05.180Z,24.83
2023-02-15T04:35:34.513Z,24.02
2023-02-15T04:38:04.087Z,22.02
2023-02-15T04:40:32.300Z,23.33
2023-02-15T04:43:00.325Z,26.63
2023-02-15T04:45:29.028Z,23.58
2023-02-15T04:47:57.462Z,25.88
2023-02-15T04:50:25.450Z,25.25
2023-02-15T04:52:53.396Z,24.33
2023-02-15T04:55:22.722Z,24.85
2023-02-15T04:57:51.017Z,24.38
2023-02-15T05:00:19.460Z,24.90
2023-02-15T05:02:47.409Z,27.13
2023-02-15T05:05:16.151Z,25.23
2023-02-15T05:07:44.153Z,25.00
2023-02-15T05:10:12.271Z,23.50
2023-02-15T05:12:41.538Z,23.85
2023-02-15T05:15:10.467Z,21.30
2023-02-15T05:17:38.569Z,25.95
2023-02-15T05:20:07.742Z,24.90
2023-02-15T05:22:35.704Z,25.08
2023-02-15T05:25:20.400Z,25.13
2023-02-15T05:28:07.209Z,26.40
2023-02-15T05:30:35.361Z,25.45
2023-02-15T05:33:03.522Z,26.27
2023-02-15T05:35:31.547Z,25.63
2023-02-15T05:37:59.544Z,27.05
2023-02-15T05:40:27.685Z,24.60
2023-02-15T05:42:57.799Z,25.23
2023-02-15T05:45:25.880Z,23.92
2023-02-15T05:47:53.863Z,26.15
2023-02-15T05:50:21.872Z,27.10
2023-02-15T05:52:52.269Z,27.45
2023-02-15T05:55:20.495Z,24.88
2023-02-15T05:57:48.530Z,26.15
2023-02-15T06:00:18.810Z,24.98
2023-02-15T06:02:46.878Z,23.20
2023-02-15T06:05:14.969Z,25.95
2023-02-15T06:07:45.733Z,27.13
2023-02-15T06:10:13.759Z,26.95
2023-02-15T06:12:41.745Z,26.98
2023-02-15T06:15:10.531Z,26.55
2023-02-15T06:17:39.874Z,25.40
2023-02-15T06:20:09.215Z,25.45
2023-02-15T06:22:37.292Z,25.52
2023-02-15T06:25:05.610Z,26.58
2023-02-15T06:27:33.599Z,24.10
2023-02-15T06:30:01.682Z,24.33
2023-02-15T06:32:30.232Z,27.98
2023-02-15T06:34:59.568Z,25.33
2023-02-15T06:37:27.599Z,25.90
2023-02-15T06:39:55.644Z,23.65
2023-02-15T06:42:24.021Z,24.63
2023-02-15T06:44:52.114Z,24.67
2023-02-15T06:47:20.130Z,26.77
2023-02-15T06:49:48.042Z,26.55
2023-02-15T06:52:17.398Z,25.85
2023-02-15T06:54:45.389Z,24.75
2023-02-15T06:57:13.421Z,26.80
2023-02-15T06:59:41.702Z,27.27
2023-02-15T07:02:10.895Z,23.50
2023-02-15T07:04:39.071Z,27.50
2023-02-15T07:07:11.347Z,22.83
2023-02-15T07:09:40.973Z,23.85
2023-02-15T07:12:26.773Z,25.10
2023-02-15T07:14:54.788Z,26.85
2023-02-15T07:17:38.562Z,25.67
2023-02-15T07:20:09.217Z,26.20
2023-02-15T07:22:38.098Z,26.70
2023-02-15T07:25:09.293Z,24.77
2023-02-15T07:27:37.453Z,23.80
2023-02-15T07:30:06.575Z,25.00
2023-02-15T07:32:35.127Z,25.98
2023-02-15T07:35:03.405Z,24.20
2023-02-15T07:37:31.349Z,24.58
2023-02-15T07:39:59.335Z,26.13
2023-02-15T07:42:28.740Z,26.00
2023-02-15T07:44:57.180Z,23.27
2023-02-15T07:47:25.082Z,26.25
2023-02-15T07:49:53.112Z,26.50
2023-02-15T07:52:22.255Z,25.35
2023-02-15T07:54:50.218Z,24.42
2023-02-15T07:57:18.247Z,24.48
2023-02-15T07:59:47.669Z,26.50
2023-02-15T08:02:18.147Z,26.98
2023-02-15T08:04:46.516Z,25.90
2023-02-15T08:07:14.488Z,24.13
2023-02-15T08:09:42.460Z,24.38
2023-02-15T08:12:10.430Z,23.77
2023-02-15T08:14:38.460Z,23.55
2023-02-15T08:17:07.820Z,23.52
2023-02-15T08:19:36.643Z,22.25
2023-02-15T08:22:06.499Z,23.13
2023-02-15T08:24:37.784Z,22.75
2023-02-15T08:27:06.641Z,23.80
2023-02-15T08:29:36.799Z,23.75
2023-02-15T08:32:08.738Z,21.63
2023-02-15T08:34:38.821Z,21.15
2023-02-15T08:37:07.339Z,19.60
2023-02-15T08:39:36.001Z,21.15
2023-02-15T08:42:04.489Z,19.60
2023-02-15T08:44:35.446Z,23.10
2023-02-15T08:47:04.605Z,19.17
2023-02-15T08:49:34.385Z,20.42
2023-02-15T08:52:02.408Z,19.38
2023-02-15T08:54:30.821Z,19.23
2023-02-15T08:56:58.790Z,18.45
2023-02-15T08:59:27.885Z,19.60
2023-02-15T09:01:56.505Z,18.67
2023-02-15T09:04:24.610Z,21.52
2023-02-15T09:06:54.313Z,21.35
2023-02-15T09:09:23.101Z,21.42
2023-02-15T09:11:57.744Z,21.58
2023-02-15T09:14:28.007Z,20.48
2023-02-15T09:16:56.658Z,18.55
2023-02-15T09:19:26.150Z,20.02
2023-02-15T09:21:56.052Z,17.52
2023-02-15T09:24:24.044Z,17.25
2023-02-15T09:26:52.079Z,15.52
2023-02-15T09:29:20.736Z,16.77
2023-02-15T09:31:50.890Z,19.23
2023-02-15T09:34:23.240Z,18.75
2023-02-15T09:36:52.337Z,20.02
2023-02-15T09:39:24.550Z,18.65
2023-02-15T09:42:08.787Z,18.33
2023-02-15T09:44:53.755Z,17.40
2023-02-15T09:47:42.259Z,17.83
2023-02-15T09:50:17.875Z,18.02
2023-02-15T09:55:42.420Z,17.25
2023-02-15T09:58:17.979Z,17.63
2023-02-15T10:03:34.581Z,17.02
2023-02-15T10:06:19.635Z,13.95
2023-02-15T10:09:09.534Z,16.57
2023-02-15T10:11:52.154Z,15.32
2023-02-15T10:14:40.095Z,14.63
2023-02-15T10:17:23.221Z,17.25
2023-02-15T10:20:05.902Z,13.65
2023-02-15T10:22:43.973Z,16.05
2023-02-15T10:25:38.940Z,14.50
2023-02-15T10:28:15.553Z,14.75
2023-02-15T10:30:49.226Z,13.73
2023-02-15T10:33:39.571Z,14.68
2023-02-15T10:36:26.222Z,13.90
2023-02-15T10:39:03.099Z,13.00
2023-02-15T10:41:40.812Z,14.02
2023-02-15T10:44:24.984Z,12.60
2023-02-15T10:47:20.013Z,12.82
2023-02-15T10:50:13.422Z,14.48
2023-02-15T10:52:55.609Z,13.63
2023-02-15T10:55:37.188Z,13.52
2023-02-15T10:58:11.885Z,11.38
2023-02-15T11:00:46.875Z,15.00
2023-02-15T11:03:32.016Z,13.70
2023-02-15T11:06:06.633Z,13.80
2023-02-15T11:08:38.978Z,14.23
2023-02-15T11:11:11.558Z,13.63
2023-02-15T11:13:45.159Z,12.27
2023-02-15T11:16:19.358Z,12.27
2023-02-15T11:18:53.475Z,12.35
2023-02-15T11:21:26.045Z,12.52
2023-02-15T11:23:54.666Z,13.90
2023-02-15T11:26:30.584Z,12.82
2023-02-15T11:29:03.299Z,12.13
2023-02-15T11:31:44.508Z,12.98
2023-02-15T11:34:20.866Z,13.95
2023-02-15T11:36:52.480Z,10.90
2023-02-15T11:39:21.962Z,12.68
2023-02-15T11:41:54.899Z,13.20
2023-02-15T11:44:28.063Z,14.52
2023-02-15T11:46:58.215Z,12.32
2023-02-15T11:49:29.858Z,12.23
2023-02-15T11:51:58.930Z,11.57
2023-02-15T11:54:30.949Z,12.65
2023-02-15T11:57:05.000Z,12.45
2023-02-15T11:59:37.691Z,12.63
2023-02-15T12:02:18.303Z,12.15
2023-02-15T12:04:51.772Z,11.55
2023-02-15T12:07:26.514Z,12.68
2023-02-15T12:10:02.512Z,10.17
2023-02-15T12:12:32.714Z,10.48
2023-02-15T12:15:02.425Z,9.32
2023-02-15T12:17:34.951Z,10.23
2023-02-15T12:20:05.197Z,12.10
2023-02-15T12:22:34.792Z,13.00
2023-02-15T12:25:05.787Z,9.18
2023-02-15T12:27:36.526Z,11.85
2023-02-15T12:30:08.258Z,10.38
2023-02-15T12:32:49.167Z,10.40
2023-02-15T12:35:28.762Z,9.98
2023-02-15T12:37:58.787Z,13.13
2023-02-15T12:40:31.316Z,12.40
2023-02-15T12:43:00.095Z,9.45
2023-02-15T12:45:30.175Z,12.45
2023-02-15T12:48:17.932Z,12.43
2023-02-15T12:50:54.268Z,11.20
2023-02-15T12:53:24.750Z,9.95
2023-02-15T12:55:55.882Z,11.68
2023-02-15T12:58:26.318Z,11.00
2023-02-15T13:01:11.920Z,12.38
2023-02-15T13:03:57.592Z,12.63
2023-02-15T13:06:26.100Z,12.93
2023-02-15T13:08:56.716Z,10.70
2023-02-15T13:11:31.101Z,10.82
2023-02-15T13:14:02.023Z,11.93
2023-02-15T13:16:34.156Z,10.35
2023-02-15T13:19:08.788Z,12.68
2023-02-15T13:21:40.635Z,12.20
2023-02-15T13:24:17.960Z,11.52
2023-02-15T13:26:48.697Z,11.18
2023-02-15T13:29:23.241Z,10.95
2023-02-15T13:31:52.273Z,10.25
2023-02-15T13:34:27.529Z,12.50
2023-02-15T13:37:04.877Z,11.10
2023-02-15T13:39:40.391Z,10.80
2023-02-15T13:42:22.383Z,11.73
2023-02-15T13:45:11.370Z,10.60
2023-02-15T13:47:47.779Z,11.98
2023-02-15T13:50:31.143Z,14.90
2023-02-15T13:53:11.822Z,13.50
2023-02-15T13:55:43.035Z,10.35
2023-02-15T13:58:45.024Z,12.60
2023-02-15T14:01:21.381Z,12.38
2023-02-15T14:04:24.661Z,11.98
2023-02-15T14:07:10.438Z,11.77
2023-02-15T14:09:50.538Z,11.05
2023-02-15T14:12:37.480Z,12.02
2023-02-15T14:15:14.945Z,12.43
2023-02-15T14:17:55.303Z,12.63
2023-02-15T14:20:29.107Z,12.90
2023-02-15T14:23:05.984Z,10.98
2023-02-15T14:25:40.430Z,10.95
2023-02-15T14:28:14.220Z,12.57
2023-02-15T14:30:47.000Z,12.80
2023-02-15T14:33:35.256Z,13.38
2023-02-15T14:36:07.569Z,12.10
2023-02-15T14:38:49.000Z,12.05
2023-02-15T14:41:22.406Z,13.75
2023-02-15T14:43:57.512Z,10.77
2023-02-15T14:46:33.035Z,11.25
2023-02-15T14:51:59.822Z,10.00
2023-02-15T14:54:58.983Z,10.55
2023-02-15T14:57:36.419Z,11.63
2023-02-15T15:00:37.113Z,8.98
2023-02-15T15:03:13.829Z,10.85
2023-02-15T15:05:51.946Z,12.52
2023-02-15T15:08:33.768Z,12.85
2023-02-15T15:13:59.390Z,12.18
2023-02-15T15:16:47.737Z,11.07
2023-02-15T15:20:05.892Z,9.93
2023-02-15T15:22:36.988Z,12.82
2023-02-15T15:25:10.143Z,12.63
2023-02-15T15:27:51.942Z,11.00
2023-02-15T15:31:02.790Z,12.35
2023-02-15T15:33:56.918Z,11.63
2023-02-15T15:37:01.429Z,12.63
2023-02-15T15:40:14.936Z,16.15
2023-02-15T15:42:51.708Z,12.20
2023-02-15T15:45:54.600Z,11.57
2023-02-15T15:48:40.928Z,11.07
2023-02-15T15:51:16.712Z,12.13
2023-02-15T15:53:51.065Z,13.45
2023-02-15T15:56:25.566Z,11.98
2023-02-15T15:58:57.282Z,11.15
2023-02-15T16:01:32.875Z,21.17
2023-02-15T16:06:35.764Z,13.57
2023-02-15T16:09:14.898Z,12.88
2023-02-15T16:11:45.288Z,14.40
2023-02-15T16:14:17.056Z,18.55
2023-02-15T16:16:52.617Z,12.77
2023-02-15T16:21:50.939Z,11.98
2023-02-15T16:24:26.941Z,11.98
2023-02-15T16:27:16.334Z,11.68
2023-02-15T16:29:44.444Z,12.98
2023-02-15T16:32:20.601Z,12.60
2023-02-15T16:34:56.901Z,14.30
2023-02-15T16:37:28.139Z,13.52
2023-02-15T16:39:57.277Z,11.95
2023-02-15T16:42:27.174Z,14.77
2023-02-15T16:45:01.248Z,13.35
2023-02-15T16:47:33.293Z,12.32
2023-02-15T16:50:04.958Z,12.32
2023-02-15T16:52:33.339Z,14.55
2023-02-15T16:55:03.381Z,13.68
2023-02-15T16:57:36.895Z,13.93
2023-02-15T17:00:08.276Z,13.57
2023-02-15T17:02:55.202Z,12.57
2023-02-15T17:05:24.603Z,12.60
2023-02-15T17:08:06.849Z,12.35
2023-02-15T17:10:37.636Z,12.15
2023-02-15T17:13:12.954Z,12.85
2023-02-15T17:15:43.086Z,14.43
2023-02-15T17:18:18.724Z,12.73
2023-02-15T17:23:27.659Z,11.82
2023-02-15T17:25:56.169Z,12.15
2023-02-15T17:28:29.728Z,13.45
2023-02-15T17:30:58.881Z,13.52
2023-02-15T17:33:36.838Z,14.10
2023-02-15T17:36:07.755Z,16.38
2023-02-15T17:38:35.714Z,16.80
2023-02-15T17:41:04.065Z,15.15
2023-02-15T17:43:33.810Z,12.43
2023-02-15T17:46:01.855Z,48.28
2023-02-15T17:48:34.066Z,12.98
2023-02-15T17:51:04.179Z,15.32
2023-02-15T17:53:33.313Z,23.77
2023-02-15T17:56:00.471Z,15.55
2023-02-15T17:58:28.452Z,13.90
2023-02-15T18:01:17.448Z,14.07
2023-02-15T18:04:05.797Z,13.73
2023-02-15T18:06:52.016Z,17.20
2023-02-15T18:09:39.213Z,16.58
2023-02-15T18:12:20.878Z,15.77
2023-02-15T18:14:49.168Z,13.88
2023-02-15T18:17:20.079Z,15.45
2023-02-15T18:19:48.815Z,16.80
2023-02-15T18:22:18.954Z,15.38
2023-02-15T18:24:47.463Z,13.80
2023-02-15T18:27:17.415Z,14.35
2023-02-15T18:29:45.353Z,14.30
2023-02-15T18:32:20.850Z,14.18
2023-02-15T18:37:20.700Z,16.00
2023-02-15T18:39:50.431Z,16.30
2023-02-15T18:42:23.337Z,15.85
2023-02-15T18:44:54.555Z,17.38
2023-02-15T18:47:24.063Z,15.77
2023-02-15T18:49:52.417Z,16.45
2023-02-15T18:52:23.632Z,18.85
2023-02-15T18:54:54.992Z,17.40
2023-02-15T18:57:24.317Z,16.02
2023-02-15T18:59:52.351Z,13.43
2023-02-15T19:02:20.639Z,13.50
2023-02-15T19:04:50.047Z,13.57
2023-02-15T19:07:21.108Z,14.52
2023-02-15T19:09:52.074Z,15.57
2023-02-15T19:12:20.550Z,14.55
2023-02-15T19:14:48.742Z,17.50
2023-02-15T19:17:18.057Z,16.55
2023-02-15T19:19:46.811Z,14.75
2023-02-15T19:22:17.928Z,15.95
2023-02-15T19:24:47.932Z,16.33
2023-02-15T19:27:24.224Z,14.88
2023-02-15T19:29:52.655Z,13.93
2023-02-15T19:32:20.724Z,14.43
2023-02-15T19:34:48.747Z,14.32
2023-02-15T19:37:25.576Z,14.45
2023-02-15T19:39:54.498Z,14.30
2023-02-15T19:42:24.557Z,14.73
2023-02-15T19:44:54.370Z,15.30
2023-02-15T19:47:22.963Z,16.20
2023-02-15T19:49:50.987Z,15.35
2023-02-15T19:52:24.027Z,15.07
2023-02-15T19:54:53.919Z,15.52
2023-02-15T19:57:23.605Z,15.00
2023-02-15T19:59:51.762Z,15.25
2023-02-15T20:02:20.265Z,17.55
2023-02-15T20:04:48.426Z,14.93
2023-02-15T20:07:25.356Z,14.38
2023-02-15T20:09:53.486Z,14.50
2023-02-15T20:12:23.062Z,15.65
2023-02-15T20:14:51.320Z,16.27
2023-02-15T20:17:19.487Z,18.42
2023-02-15T20:19:47.600Z,17.25
2023-02-15T20:22:24.712Z,15.93
2023-02-15T20:24:55.479Z,16.55
2023-02-15T20:27:26.583Z,17.95
2023-02-15T20:29:57.826Z,16.65
2023-02-15T20:32:25.991Z,16.20
2023-02-15T20:34:54.040Z,15.15
2023-02-15T20:37:26.282Z,15.10
2023-02-15T20:39:54.318Z,15.27
2023-02-15T20:42:22.367Z,15.80
2023-02-15T20:44:50.420Z,15.60
2023-02-15T20:47:18.553Z,15.85
2023-02-15T20:49:46.525Z,15.43
2023-02-15T20:52:20.331Z,16.40
2023-02-15T20:54:49.726Z,15.82
2023-02-15T20:57:19.535Z,15.25
2023-02-15T20:59:47.809Z,15.93
2023-02-15T21:02:20.992Z,16.08
2023-02-15T21:04:48.994Z,15.18
2023-02-15T21:07:17.963Z,16.63
2023-02-15T21:09:46.393Z,16.23
2023-02-15T21:12:17.677Z,18.67
2023-02-15T21:14:46.565Z,18.30
2023-02-15T21:17:16.691Z,20.38
2023-02-15T21:19:46.180Z,17.75
2023-02-15T21:22:16.531Z,15.93
2023-02-15T21:24:53.444Z,18.08
2023-02-15T21:27:23.133Z,20.45
2023-02-15T21:29:51.129Z,17.83
2023-02-15T21:32:19.818Z,18.38
2023-02-15T21:34:47.868Z,17.00
2023-02-15T21:37:41.017Z,17.83
2023-02-15T21:40:17.402Z,16.85
2023-02-15T21:43:06.112Z,17.65
2023-02-15T21:45:51.294Z,19.85
2023-02-15T21:48:20.664Z,17.07
2023-02-15T21:51:08.113Z,16.15
2023-02-15T21:53:38.248Z,16.67
2023-02-15T21:56:10.461Z,17.48
2023-02-15T21:58:39.969Z,17.38
2023-02-15T22:01:11.890Z,17.42
2023-02-15T22:03:40.568Z,17.25
2023-02-15T22:06:13.175Z,17.45
2023-02-15T22:08:41.378Z,17.80
2023-02-15T22:11:16.706Z,15.68
2023-02-15T22:13:46.648Z,21.88
2023-02-15T22:16:17.887Z,17.63
2023-02-15T22:18:47.084Z,18.00
2023-02-15T22:21:16.615Z,19.48
2023-02-15T22:23:44.565Z,16.85
2023-02-15T22:26:24.606Z,19.23
2023-02-15T22:28:54.198Z,18.40
2023-02-15T22:31:24.532Z,18.52
2023-02-15T22:33:54.602Z,18.63
2023-02-15T22:36:25.771Z,18.98
2023-02-15T22:38:54.510Z,16.33
2023-02-15T22:41:26.104Z,17.63
2023-02-15T22:43:55.520Z,16.65
2023-02-15T22:46:25.323Z,18.15
2023-02-15T22:48:53.791Z,18.23
2023-02-15T22:51:25.401Z,17.70
2023-02-15T22:53:53.782Z,16.70
2023-02-15T22:56:26.773Z,17.55
2023-02-15T22:59:01.626Z,16.48
2023-02-15T23:01:33.138Z,18.40
2023-02-15T23:04:03.436Z,19.15
2023-02-15T23:06:31.959Z,17.75
2023-02-15T23:09:02.810Z,19.20
2023-02-15T23:11:30.899Z,17.13
2023-02-15T23:14:02.970Z,17.40
2023-02-15T23:16:31.144Z,16.05
2023-02-15T23:18:59.353Z,17.38
2023-02-15T23:21:30.887Z,18.17
2023-02-15T23:24:00.884Z,18.42
2023-02-15T23:26:32.054Z,19.83
2023-02-15T23:29:03.753Z,20.23
2023-02-15T23:31:34.128Z,17.77
2023-02-15T23:34:03.891Z,18.45
2023-02-15T23:36:33.991Z,17.90
2023-02-15T23:39:33.771Z,17.20
2023-02-15T23:42:03.588Z,17.25
2023-02-15T23:44:33.103Z,18.05
2023-02-15T23:47:01.188Z,18.13
2023-02-15T23:49:29.451Z,20.25
2023-02-15T23:51:58.924Z,18.13
2023-02-15T23:54:27.484Z,17.52
2023-02-15T23:56:59.444Z,19.48
2023-02-15T23:59:32.849Z,19.95
